createdAt,value
2018-03-25T00:00:16.095Z,5.80
2018-03-25T00:02:44.160Z,5.80
2018-03-25T00:05:12.218Z,5.90
2018-03-25T00:07:40.431Z,5.80
2018-03-25T00:10:08.498Z,5.90
2018-03-25T00:12:36.545Z,5.90
2018-03-25T00:15:05.393Z,5.80
2018-03-25T00:17:33.480Z,5.70
2018-03-25T00:20:01.555Z,5.80
2018-03-25T00:22:29.649Z,5.80
2018-03-25T00:24:57.739Z,5.70
2018-03-25T00:27:25.845Z,5.60
2018-03-25T00:29:56.331Z,5.60
2018-03-25T00:32:24.979Z,5.60
2018-03-25T00:34:53.837Z,5.40
2018-03-25T00:37:21.911Z,5.40
2018-03-25T00:39:50.095Z,5.30
2018-03-25T00:42:18.210Z,5.00
2018-03-25T00:44:47.000Z,4.90
2018-03-25T00:47:15.232Z,4.90
2018-03-25T00:49:43.292Z,4.80
2018-03-25T00:52:11.364Z,4.80
2018-03-25T00:54:40.248Z,4.50
2018-03-25T00:57:09.092Z,4.40
2018-03-25T00:59:37.117Z,4.40
2018-03-25T01:02:05.184Z,4.30
2018-03-25T01:04:34.112Z,4.40
2018-03-25T01:07:02.174Z,4.30
2018-03-25T01:09:31.045Z,4.10
2018-03-25T01:11:59.110Z,4.10
2018-03-25T01:14:27.238Z,4.00
2018-03-25T01:16:55.297Z,4.20
2018-03-25T01:19:23.470Z,4.20
2018-03-25T01:21:51.537Z,4.20
2018-03-25T01:24:19.608Z,4.00
2018-03-25T01:26:49.482Z,4.00
2018-03-25T01:29:17.728Z,3.90
2018-03-25T01:31:45.810Z,3.80
2018-03-25T01:34:13.949Z,3.80
2018-03-25T01:36:42.002Z,3.70
2018-03-25T01:39:10.092Z,3.60
2018-03-25T01:41:38.153Z,3.70
2018-03-25T01:44:06.237Z,3.70
2018-03-25T01:46:34.309Z,3.70
2018-03-25T01:49:02.395Z,3.70
2018-03-25T01:51:30.584Z,3.60
2018-03-25T01:53:58.644Z,3.50
2018-03-25T01:56:26.733Z,3.40
2018-03-25T01:58:54.796Z,3.30
2018-03-25T02:01:23.628Z,3.30
2018-03-25T02:03:51.744Z,3.30
2018-03-25T02:06:19.832Z,3.40
2018-03-25T02:08:48.064Z,3.40
2018-03-25T02:11:16.975Z,3.20
2018-03-25T02:13:45.036Z,3.20
2018-03-25T02:16:13.094Z,3.20
2018-03-25T02:18:41.253Z,3.40
2018-03-25T02:21:09.309Z,3.30
2018-03-25T02:23:37.475Z,3.30
2018-03-25T02:26:05.531Z,3.30
2018-03-25T02:28:33.613Z,3.30
2018-03-25T02:31:01.724Z,3.30
2018-03-25T02:33:29.823Z,3.20
2018-03-25T02:35:58.644Z,3.20
2018-03-25T02:38:26.899Z,3.20
2018-03-25T02:40:55.726Z,3.10
2018-03-25T02:43:23.815Z,3.00
2018-03-25T02:45:51.865Z,3.00
2018-03-25T02:48:19.931Z,2.90
2018-03-25T02:50:47.990Z,2.90
2018-03-25T02:53:16.168Z,3.00
2018-03-25T02:55:44.283Z,3.10
2018-03-25T02:58:12.345Z,3.00
2018-03-25T03:00:40.397Z,2.90
2018-03-25T03:03:08.470Z,3.00
2018-03-25T03:05:36.543Z,3.00
2018-03-25T03:08:05.368Z,2.70
2018-03-25T03:10:33.437Z,2.70
2018-03-25T03:13:01.502Z,2.70
2018-03-25T03:15:30.428Z,2.60
2018-03-25T03:17:58.648Z,2.60
2018-03-25T03:20:26.711Z,2.50
2018-03-25T03:22:54.787Z,2.50
2018-03-25T03:25:22.863Z,2.40
2018-03-25T03:27:51.897Z,2.30
2018-03-25T03:30:19.968Z,2.30
2018-03-25T03:32:48.813Z,2.40
2018-03-25T03:35:16.894Z,2.40
2018-03-25T03:37:44.960Z,2.60
2018-03-25T03:40:13.045Z,2.50
2018-03-25T03:42:41.126Z,2.60
2018-03-25T03:45:09.833Z,2.50
2018-03-25T03:47:37.901Z,2.60
2018-03-25T03:50:05.982Z,2.50
2018-03-25T03:52:34.098Z,2.40
2018-03-25T03:55:02.138Z,2.30
2018-03-25T03:57:30.275Z,2.30
2018-03-25T03:59:58.345Z,2.40
2018-03-25T04:02:26.424Z,2.50
2018-03-25T04:04:54.890Z,2.40
2018-03-25T04:07:22.952Z,2.40
2018-03-25T04:09:51.164Z,2.40
2018-03-25T04:12:19.242Z,2.50
2018-03-25T04:14:47.345Z,2.50
2018-03-25T04:17:15.404Z,2.50
2018-03-25T04:19:43.496Z,2.40
2018-03-25T04:22:11.635Z,2.30
2018-03-25T04:24:40.487Z,2.20
2018-03-25T04:27:08.638Z,2.20
2018-03-25T04:29:37.459Z,2.30
2018-03-25T04:32:05.627Z,2.30
2018-03-25T04:34:33.741Z,2.40
2018-03-25T04:37:01.805Z,2.50
2018-03-25T04:39:29.886Z,2.50
2018-03-25T04:41:57.948Z,2.40
2018-03-25T04:44:26.788Z,2.30
2018-03-25T04:46:54.900Z,2.30
2018-03-25T04:49:23.770Z,2.40
2018-03-25T04:51:51.978Z,2.40
2018-03-25T04:54:20.059Z,2.40
2018-03-25T04:56:48.133Z,2.40
2018-03-25T04:59:16.191Z,2.50
2018-03-25T05:01:44.265Z,2.40
2018-03-25T05:04:13.095Z,2.40
2018-03-25T05:06:41.173Z,2.40
2018-03-25T05:09:09.255Z,2.40
2018-03-25T05:11:37.324Z,2.30
2018-03-25T05:14:05.406Z,2.30
2018-03-25T05:16:33.472Z,2.20
2018-03-25T05:19:02.305Z,2.00
2018-03-25T05:21:30.383Z,2.00
2018-03-25T05:23:58.442Z,2.00
2018-03-25T05:26:27.285Z,2.00
2018-03-25T05:28:55.347Z,2.00
2018-03-25T05:31:23.429Z,1.90
2018-03-25T05:33:51.510Z,1.80
2018-03-25T05:36:19.580Z,1.80
2018-03-25T05:38:48.423Z,1.90
2018-03-25T05:41:16.506Z,1.90
2018-03-25T05:43:44.578Z,2.00
2018-03-25T05:46:12.654Z,2.20
2018-03-25T05:48:40.723Z,2.20
2018-03-25T05:51:09.560Z,2.20
2018-03-25T05:53:38.613Z,2.20
2018-03-25T05:56:06.678Z,2.20
2018-03-25T05:58:34.740Z,2.20
2018-03-25T06:01:02.837Z,2.20
2018-03-25T06:03:30.884Z,2.40
2018-03-25T06:05:58.955Z,2.40
2018-03-25T06:08:27.020Z,2.30
2018-03-25T06:10:55.881Z,2.40
2018-03-25T06:13:23.938Z,2.40
2018-03-25T06:15:52.076Z,2.50
2018-03-25T06:18:20.064Z,2.60
2018-03-25T06:20:48.900Z,2.70
2018-03-25T06:23:16.970Z,2.70
2018-03-25T06:25:45.814Z,2.90
2018-03-25T06:28:13.881Z,2.80
2018-03-25T06:30:41.967Z,2.90
2018-03-25T06:33:10.752Z,2.90
2018-03-25T06:35:38.829Z,2.90
2018-03-25T06:38:06.900Z,2.90
2018-03-25T06:40:35.747Z,3.00
2018-03-25T06:43:03.822Z,3.00
2018-03-25T06:45:32.160Z,3.00
2018-03-25T06:48:00.988Z,3.00
2018-03-25T06:50:29.070Z,3.00
2018-03-25T06:52:57.125Z,3.00
2018-03-25T06:55:25.219Z,3.20
2018-03-25T06:57:54.054Z,3.10
2018-03-25T07:00:22.093Z,3.10
2018-03-25T07:02:50.171Z,3.20
2018-03-25T07:05:18.229Z,3.20
2018-03-25T07:07:46.304Z,3.20
2018-03-25T07:10:14.353Z,3.30
2018-03-25T07:12:42.419Z,3.50
2018-03-25T07:15:11.263Z,3.80
2018-03-25T07:17:39.330Z,3.70
2018-03-25T07:20:07.395Z,3.90
2018-03-25T07:22:36.940Z,3.90
2018-03-25T07:25:05.049Z,3.90
2018-03-25T07:27:33.129Z,4.00
2018-03-25T07:30:01.307Z,4.10
2018-03-25T07:32:29.392Z,4.20
2018-03-25T07:34:57.440Z,4.20
2018-03-25T07:37:25.504Z,4.20
2018-03-25T07:39:54.332Z,4.30
2018-03-25T07:42:22.384Z,4.20
2018-03-25T07:44:50.450Z,4.30
2018-03-25T07:47:18.512Z,4.50
2018-03-25T07:49:46.591Z,4.50
2018-03-25T07:52:15.068Z,4.60
2018-03-25T07:54:43.124Z,4.70
2018-03-25T07:57:11.955Z,5.30
2018-03-25T07:59:40.008Z,5.20
2018-03-25T08:02:08.855Z,5.50
2018-03-25T08:04:36.929Z,5.50
2018-03-25T08:07:05.010Z,5.70
2018-03-25T08:09:33.416Z,5.70
2018-03-25T08:12:01.495Z,5.90
2018-03-25T08:14:29.545Z,5.90
2018-03-25T08:16:57.626Z,6.00
2018-03-25T08:19:26.457Z,6.10
2018-03-25T08:21:54.541Z,6.10
2018-03-25T08:24:22.619Z,6.20
2018-03-25T08:26:50.700Z,6.30
2018-03-25T08:29:20.751Z,6.40
2018-03-25T08:31:49.317Z,6.60
2018-03-25T08:34:17.379Z,6.80
2018-03-25T08:36:46.217Z,7.00
2018-03-25T08:39:14.282Z,7.00
2018-03-25T08:41:42.371Z,7.10
2018-03-25T08:44:10.419Z,7.20
2018-03-25T08:46:38.556Z,7.20
2018-03-25T08:49:06.548Z,7.30
2018-03-25T08:51:34.633Z,7.30
2018-03-25T08:54:02.697Z,7.30
2018-03-25T08:56:30.764Z,7.40
2018-03-25T08:58:58.852Z,7.60
2018-03-25T09:01:26.928Z,7.50
2018-03-25T09:03:55.081Z,7.60
2018-03-25T09:06:23.118Z,7.90
2018-03-25T09:08:51.296Z,7.90
2018-03-25T09:11:19.399Z,8.00
2018-03-25T09:13:47.439Z,8.20
2018-03-25T09:16:16.278Z,8.50
2018-03-25T09:18:44.350Z,8.50
2018-03-25T09:21:12.396Z,8.70
2018-03-25T09:23:41.240Z,9.00
2018-03-25T09:26:09.300Z,8.90
2018-03-25T09:28:37.372Z,9.20
2018-03-25T09:31:06.210Z,9.60
2018-03-25T09:33:34.282Z,9.50
2018-03-25T09:36:02.354Z,9.60
2018-03-25T09:38:30.417Z,9.90
2018-03-25T09:41:00.262Z,14.60
2018-03-25T09:43:28.396Z,14.60
2018-03-25T09:45:56.453Z,18.00
2018-03-25T09:48:24.533Z,20.80
2018-03-25T09:50:52.600Z,22.80
2018-03-25T09:53:20.700Z,24.70
2018-03-25T09:55:48.848Z,24.60
2018-03-25T09:58:17.686Z,25.90
2018-03-25T10:03:50.644Z,24.80
2018-03-25T10:06:18.668Z,24.90
2018-03-25T10:08:47.522Z,23.60
2018-03-25T10:11:15.588Z,23.50
2018-03-25T10:13:43.670Z,22.40
2018-03-25T10:16:11.737Z,21.80
2018-03-25T10:18:39.845Z,21.30
2018-03-25T10:21:07.864Z,20.60
2018-03-25T10:23:35.952Z,20.10
2018-03-25T10:26:04.194Z,20.30
2018-03-25T10:28:32.267Z,20.40
2018-03-25T10:31:00.332Z,20.60
2018-03-25T10:33:28.541Z,21.00
2018-03-25T10:35:56.612Z,22.40
2018-03-25T10:38:24.692Z,23.40
2018-03-25T10:40:52.770Z,23.70
2018-03-25T10:43:21.625Z,23.30
2018-03-25T10:45:49.680Z,23.30
2018-03-25T10:48:17.766Z,23.90
2018-03-25T10:50:45.844Z,23.60
2018-03-25T10:53:13.929Z,23.10
2018-03-25T10:55:41.962Z,22.80
2018-03-25T10:58:10.038Z,24.30
2018-03-25T11:00:38.100Z,24.70
2018-03-25T11:03:06.181Z,24.90
2018-03-25T11:05:34.259Z,24.90
2018-03-25T11:08:02.337Z,25.30
2018-03-25T11:10:30.407Z,25.60
2018-03-25T11:12:58.486Z,24.40
2018-03-25T11:15:26.544Z,24.50
2018-03-25T11:17:55.385Z,24.10
2018-03-25T11:20:23.445Z,24.10
2018-03-25T11:22:51.499Z,23.50
2018-03-25T11:25:19.566Z,23.40
2018-03-25T11:27:47.625Z,24.30
2018-03-25T11:30:15.706Z,23.90
2018-03-25T11:32:43.765Z,24.20
2018-03-25T11:35:11.853Z,23.80
2018-03-25T11:37:39.924Z,23.40
2018-03-25T11:40:08.755Z,23.10
2018-03-25T11:42:36.820Z,23.10
2018-03-25T11:45:04.905Z,22.50
2018-03-25T11:47:32.998Z,23.70
2018-03-25T11:50:01.789Z,23.40
2018-03-25T11:52:29.863Z,23.40
2018-03-25T11:54:57.942Z,24.40
2018-03-25T11:57:26.771Z,22.20
2018-03-25T11:59:55.595Z,21.90
2018-03-25T12:02:23.668Z,21.90
2018-03-25T12:04:51.732Z,22.90
2018-03-25T12:07:19.797Z,23.60
2018-03-25T12:09:47.852Z,23.80
2018-03-25T12:12:15.916Z,23.40
2018-03-25T12:14:43.998Z,23.50
2018-03-25T13:39:09.796Z,24.50
2018-03-25T13:41:37.903Z,18.20
2018-03-25T13:44:05.944Z,18.40
2018-03-25T13:46:33.997Z,19.10
2018-03-25T13:49:02.062Z,19.50
2018-03-25T13:51:30.134Z,18.90
2018-03-25T13:53:59.005Z,18.60
2018-03-25T13:56:27.023Z,18.60
2018-03-25T13:58:55.077Z,18.70
2018-03-25T14:01:23.139Z,18.60
2018-03-25T14:03:51.196Z,19.00
2018-03-25T14:06:19.270Z,19.40
2018-03-25T14:08:47.359Z,19.50
2018-03-25T14:11:15.419Z,19.10
2018-03-25T14:13:43.506Z,18.70
2018-03-25T14:16:11.573Z,18.80
2018-03-25T14:18:40.451Z,18.50
2018-03-25T14:21:08.499Z,18.40
2018-03-25T14:23:36.561Z,18.50
2018-03-25T14:26:04.645Z,18.10
2018-03-25T14:28:32.717Z,17.80
2018-03-25T14:31:01.540Z,17.90
2018-03-25T14:33:30.031Z,17.90
2018-03-25T14:35:58.100Z,17.40
2018-03-25T14:38:26.202Z,17.40
2018-03-25T14:40:54.268Z,17.40
2018-03-25T14:43:22.334Z,17.50
2018-03-25T14:45:51.174Z,17.70
2018-03-25T14:48:19.238Z,17.60
2018-03-25T14:50:47.320Z,17.60
2018-03-25T14:53:16.156Z,17.30
2018-03-25T14:55:44.237Z,17.30
2018-03-25T14:58:12.609Z,17.80
2018-03-25T15:00:40.714Z,17.40
2018-03-25T15:03:08.785Z,17.40
2018-03-25T15:05:36.852Z,17.60
2018-03-25T15:08:04.916Z,17.60
2018-03-25T15:10:33.833Z,18.00
2018-03-25T15:13:01.870Z,18.00
2018-03-25T15:15:30.007Z,17.70
2018-03-25T15:17:58.084Z,18.00
2018-03-25T15:20:26.150Z,18.10
2018-03-25T15:22:55.000Z,17.80
2018-03-25T15:25:23.071Z,17.70
2018-03-25T15:27:51.140Z,17.60
2018-03-25T15:30:19.220Z,17.30
2018-03-25T15:32:47.309Z,17.30
2018-03-25T15:35:15.376Z,17.40
2018-03-25T15:37:44.225Z,17.50
2018-03-25T15:40:12.301Z,17.50
2018-03-25T15:42:40.378Z,17.40
2018-03-25T15:45:08.448Z,17.20
2018-03-25T15:47:36.534Z,16.70
2018-03-25T15:50:04.619Z,16.90
2018-03-25T15:52:32.693Z,17.00
2018-03-25T15:55:00.840Z,16.80
2018-03-25T15:57:28.914Z,16.90
2018-03-25T15:59:56.985Z,16.70
2018-03-25T16:02:25.054Z,16.80
2018-03-25T16:04:55.946Z,16.80
2018-03-25T16:07:24.550Z,16.60
2018-03-25T16:09:53.260Z,16.30
2018-03-25T16:12:21.516Z,15.90
2018-03-25T16:14:49.797Z,15.40
2018-03-25T16:17:18.243Z,15.20
2018-03-25T16:19:47.095Z,15.00
2018-03-25T16:22:15.452Z,14.90
2018-03-25T16:24:43.637Z,15.10
2018-03-25T16:27:13.290Z,15.10
2018-03-25T16:29:43.916Z,15.10
2018-03-25T16:32:13.362Z,14.80
2018-03-25T16:34:41.497Z,14.70
2018-03-25T16:37:09.783Z,14.40
2018-03-25T16:39:37.861Z,14.10
2018-03-25T16:42:05.948Z,14.00
2018-03-25T16:44:34.081Z,13.80
2018-03-25T16:47:02.158Z,13.80
2018-03-25T16:49:30.216Z,13.70
2018-03-25T16:51:58.297Z,13.60
2018-03-25T16:54:26.397Z,13.50
2018-03-25T16:56:54.475Z,13.30
2018-03-25T16:59:22.533Z,13.20
2018-03-25T17:01:50.613Z,13.10
2018-03-25T17:04:18.681Z,13.00
2018-03-25T17:06:47.516Z,13.10
2018-03-25T17:09:15.605Z,13.10
2018-03-25T17:11:43.669Z,13.20
2018-03-25T17:14:11.749Z,13.20
2018-03-25T17:16:39.827Z,13.00
2018-03-25T17:19:07.900Z,13.00
2018-03-25T17:21:36.735Z,12.70
2018-03-25T17:24:04.820Z,12.70
2018-03-25T17:26:32.881Z,12.60
2018-03-25T17:29:01.733Z,12.50
2018-03-25T17:31:29.792Z,12.40
2018-03-25T17:33:57.868Z,12.50
2018-03-25T17:36:25.940Z,12.40
2018-03-25T17:38:54.030Z,12.30
2018-03-25T17:41:22.120Z,12.30
2018-03-25T17:43:50.199Z,12.30
2018-03-25T17:46:18.278Z,12.30
2018-03-25T17:48:46.361Z,12.20
2018-03-25T17:51:14.427Z,12.20
2018-03-25T17:53:42.495Z,12.10
2018-03-25T17:56:10.557Z,12.00
2018-03-25T17:58:38.658Z,12.00
2018-03-25T18:01:06.711Z,11.90
2018-03-25T18:03:34.781Z,11.70
2018-03-25T18:06:02.922Z,11.50
2018-03-25T18:08:31.757Z,11.40
2018-03-25T18:10:59.832Z,11.40
2018-03-25T18:13:27.961Z,11.40
2018-03-25T18:15:56.064Z,11.30
2018-03-25T18:18:24.255Z,11.20
2018-03-25T18:20:56.289Z,11.10
2018-03-25T18:23:20.384Z,10.90
2018-03-25T18:25:48.456Z,10.70
2018-03-25T18:28:16.555Z,10.70
2018-03-25T18:30:44.662Z,10.50
2018-03-25T18:33:12.822Z,10.40
2018-03-25T18:35:40.897Z,10.40
2018-03-25T18:38:08.961Z,10.30
2018-03-25T18:40:37.083Z,10.20
2018-03-25T18:43:05.160Z,10.00
2018-03-25T18:45:33.234Z,9.90
2018-03-25T18:48:01.306Z,9.80
2018-03-25T18:50:29.376Z,9.90
2018-03-25T18:52:57.469Z,9.90
2018-03-25T18:55:25.533Z,9.90
2018-03-25T18:57:54.392Z,9.70
2018-03-25T19:00:22.433Z,9.70
2018-03-25T19:02:50.529Z,9.50
2018-03-25T19:05:18.895Z,9.30
2018-03-25T19:07:48.366Z,9.10
2018-03-25T19:10:17.400Z,8.80
2018-03-25T19:12:46.325Z,8.70
2018-03-25T19:15:14.413Z,8.70
2018-03-25T19:17:42.453Z,8.80
2018-03-25T19:20:10.530Z,8.70
2018-03-25T19:22:38.603Z,8.60
2018-03-25T19:25:06.680Z,8.50
2018-03-25T19:27:34.752Z,8.50
2018-03-25T19:30:02.830Z,8.50
2018-03-25T19:32:30.910Z,8.50
2018-03-25T19:34:58.987Z,8.50
2018-03-25T19:37:27.058Z,8.50
2018-03-25T19:39:55.104Z,8.30
2018-03-25T19:42:23.177Z,8.10
2018-03-25T19:44:51.258Z,7.90
2018-03-25T19:47:19.322Z,7.90
2018-03-25T19:49:47.404Z,7.90
2018-03-25T19:52:15.494Z,7.80
2018-03-25T19:54:43.579Z,7.70
2018-03-25T19:57:12.394Z,7.70
2018-03-25T19:59:40.496Z,7.70
2018-03-25T20:02:08.564Z,7.80
2018-03-25T20:04:36.647Z,7.80
2018-03-25T20:07:04.705Z,7.60
2018-03-25T20:09:33.099Z,7.50
2018-03-25T20:12:01.152Z,7.50
2018-03-25T20:14:29.283Z,7.60
2018-03-25T20:16:58.054Z,7.60
2018-03-25T20:19:26.190Z,7.50
2018-03-25T20:21:54.245Z,7.60
2018-03-25T20:24:23.354Z,7.30
2018-03-25T20:26:51.426Z,7.30
2018-03-25T20:29:19.505Z,7.40
2018-03-25T20:31:47.575Z,7.50
2018-03-25T20:34:15.668Z,7.30
2018-03-25T20:36:44.651Z,7.10
2018-03-25T20:39:13.483Z,6.90
2018-03-25T20:41:41.593Z,6.90
2018-03-25T20:44:09.655Z,7.00
2018-03-25T20:46:37.758Z,6.80
2018-03-25T20:49:05.864Z,6.90
2018-03-25T20:51:33.930Z,6.80
2018-03-25T20:54:02.349Z,6.80
2018-03-25T20:56:30.380Z,6.70
2018-03-25T20:58:58.495Z,6.70
2018-03-25T21:01:26.541Z,6.60
2018-03-25T21:03:54.645Z,6.50
2018-03-25T21:06:22.742Z,6.50
2018-03-25T21:08:50.823Z,6.60
2018-03-25T21:11:19.606Z,6.70
2018-03-25T21:13:47.666Z,6.80
2018-03-25T21:16:15.767Z,6.70
2018-03-25T21:18:43.822Z,6.50
2018-03-25T21:21:12.657Z,6.30
2018-03-25T21:23:40.725Z,6.30
2018-03-25T21:26:08.797Z,6.30
2018-03-25T21:28:36.900Z,6.40
2018-03-25T21:31:04.964Z,6.50
2018-03-25T21:33:33.603Z,6.50
2018-03-25T21:36:01.685Z,6.40
2018-03-25T21:38:29.734Z,6.20
2018-03-25T21:40:57.800Z,6.10
2018-03-25T21:43:25.852Z,6.00
2018-03-25T21:45:53.940Z,5.90
2018-03-25T21:48:21.990Z,5.80
2018-03-25T21:50:50.065Z,5.80
2018-03-25T21:53:18.169Z,5.70
2018-03-25T21:55:47.135Z,5.70
2018-03-25T21:58:15.993Z,5.70
2018-03-25T22:00:44.135Z,5.60
2018-03-25T22:03:12.137Z,5.80
2018-03-25T22:05:40.226Z,5.80
2018-03-25T22:08:08.262Z,5.80
2018-03-25T22:10:36.382Z,5.80
2018-03-25T22:13:04.441Z,5.80
2018-03-25T22:15:32.520Z,5.70
2018-03-25T22:18:00.568Z,5.90
2018-03-25T22:20:29.638Z,5.70
2018-03-25T22:22:57.697Z,5.60
2018-03-25T22:25:25.774Z,5.50
2018-03-25T22:27:53.829Z,5.70
2018-03-25T22:30:23.225Z,5.70
2018-03-25T22:32:51.317Z,5.70
2018-03-25T22:35:19.465Z,5.60
2018-03-25T22:37:48.321Z,5.50
2018-03-25T22:40:17.155Z,5.40
2018-03-25T22:42:46.027Z,5.40
2018-03-25T22:45:14.082Z,5.30
2018-03-25T22:47:42.154Z,5.20
2018-03-25T22:50:10.241Z,5.20
2018-03-25T22:52:38.311Z,5.30
2018-03-25T22:55:06.380Z,5.40
2018-03-25T22:57:34.457Z,5.50
2018-03-25T23:00:02.643Z,5.50
2018-03-25T23:02:30.881Z,5.50
2018-03-25T23:04:58.933Z,5.50
2018-03-25T23:07:27.940Z,5.50
2018-03-25T23:09:57.016Z,5.40
2018-03-25T23:12:25.094Z,5.30
2018-03-25T23:14:53.202Z,5.10
2018-03-25T23:17:21.366Z,5.00
2018-03-25T23:19:49.407Z,4.90
2018-03-25T23:22:17.538Z,5.00
2018-03-25T23:24:45.585Z,4.90
2018-03-25T23:27:13.662Z,5.00
2018-03-25T23:29:41.745Z,4.90
2018-03-25T23:32:09.808Z,4.80
2018-03-25T23:34:37.872Z,4.70
2018-03-25T23:37:05.953Z,4.80
2018-03-25T23:39:35.184Z,4.70
2018-03-25T23:42:03.272Z,4.80
2018-03-25T23:44:31.421Z,4.70
2018-03-25T23:46:59.654Z,4.70
2018-03-25T23:49:27.723Z,4.60
2018-03-25T23:51:55.814Z,4.80
2018-03-25T23:54:23.871Z,4.70
2018-03-25T23:56:51.934Z,4.60
2018-03-25T23:59:19.984Z,4.50
